Midway, North Carolina
Current Conditions -  °F | °C
As of 3:15 AM on Monday 26 Jan 2015 (Local Time) from KSIF Reporting Station
Clear Clear  
Wind Chill: 32°   Ceiling: Unl
Heat Index: 32°   Visibility: 10mi
Dew Point: 31°   Wind: 0mph
Humidity: 96%   Direction: NA
Pressure: 29.68"   Gusts: NA
Location:  36.3355°N, 79.6561°W
Report Text: KSIF 260815Z AUTO 00000KT 10SM CLR 00/00 A2968 RMK AO2 T00001005
Loading
Personal Weather Stations






























Interactive Weather Map New forecast layout! Learn more

10-Day Weather Forecast

Advertisements
Track Severe Weather on mobile